Iaşi, România

02:16 AM EEST on august 29, 2014 (GMT +0300)
Facultatea de Geografie si Geologie | Change Station
CLOSE
Current Station
Staţie meteo personală
Location: Iasi, IASI
Elevation: 358 ft
Nearby Weather Stations

Elev 358 ft 47.17 °N, 27.57 °E | Updated 2 seconds ago

Clear
Cer senin
54.7 °F
Feels Like 54.7 °F
N
2.8
Vânt variabil Vânt from NV
Gusts 2.8 mph

astăzi
High -- | Low -- °F
--% Chance of Precip.
Ieri
High -- | Low -- °F
Precip. -- inch
6:24 AM 7:55 PM
Semilună în creştere, 10% visible
Presiunea 30.09 inch
Vizibilitatea 6.2 mile
Nori
Punctul de rouă 48 °F
Umiditatea 78%
Precipitaţii 0.00 inch
Adâncimea zăpezii Not available.
UV Not available.
Pollen Not available.
Calitatea aerului Not available.
Flu Activity Not available.
METAR LUBL 282300Z AUTO 27007KT 9999 NCD 12/09 Q1019

More Conditions Fewer Conditions

Presiunea 30.09 inch
Vizibilitatea 6.2 mile
Nori
Punctul de rouă 48 °F
Umiditatea 78%
Precipitaţii 0.00 inch
Adâncimea zăpezii Not available.
UV Not available.
Pollen Not available.
Calitatea aerului Not available.
Flu Activity Not available.
METAR LUBL 282300Z AUTO 27007KT 9999 NCD 12/09 Q1019

More Conditions Fewer Conditions

10-Day Weather Forecast

Almanac

Astronomie

Aug. 29, 2014 Răsărit Apus
Timpul Actual 6:24 AM EEST 7:55 PM EEST
Crepusculul Civil 5:52 AM EEST 8:27 PM EEST
Crepusculul nautic 5:13 AM EEST 9:06 PM EEST
Răsărit Astronomic 4:31 AM EEST 9:47 PM EEST
Luna 10:11 AM EEST (8/29) 9:24 PM EEST (8/29)
Durata zilei lumină 14h 35m
Lungimea zilei
13h 31m
Tomorrow will be 3m 14s shorter.
Semilună în creştere, 10% of the Moon is Illuminated
Aug 28
Semilună în creştere
Sep 2
Primul pătrar
Sep 8
Lună plină
Sep 15
Ultimul pătrar
Sep 24
New

Yesterday's Extremes

Country Highs Country Lows

Community

WunderPhotos

Upload Photos

1,748,102 photos uploaded!

Nearby

Calitatea aerului

Not available.

Adâncimea zapezii

Not available.

Earthquake Activity

Oraş Distance Mag. Time & Date
No recent earthquake activity has been reported nearby.
Minimum magnitude displayed is 2.5.

Coastal Water Temperatures

Locul Temperatura
No Stations Reporting

Nearby Weather Stations